Atlanta, Louisiana
Current Conditions -  °F | °C
As of 10:15 PM on Tuesday 27 Jan 2015 (Local Time) from KIER Reporting Station
Clear Clear  
Wind Chill:   Ceiling: Unl
Heat Index:   Visibility: 10mi
Dew Point:   Wind: 0mph
Humidity: 93%   Direction: NA
Pressure: 30.16"   Gusts: NA
Location:  31.81°N, 92.74°W
Report Text: KIER 280415Z AUTO 00000KT 10SM CLR 08/06 A3016 RMK AO2 T00750064
Loading
Personal Weather Stations






























Interactive Weather Map New forecast layout! Learn more

10-Day Weather Forecast

Advertisements
Track Severe Weather on mobile